sensor_id;sensor_type;location;lat;lon;timestamp;pressure;altitude;pressure_sealevel;temperature;humidity
10099;BME280;5089;42.656;23.374;2022-09-17T00:00:37;93998.97;;;19.89;90.09
10099;BME280;5089;42.656;23.374;2022-09-17T00:03:05;93992.38;;;19.75;90.77
10099;BME280;5089;42.656;23.374;2022-09-17T00:05:32;93889.06;;;19.26;90.50
10099;BME280;5089;42.656;23.374;2022-09-17T00:08:02;93993.25;;;19.79;90.81
10099;BME280;5089;42.656;23.374;2022-09-17T00:10:32;93920.78;;;19.34;90.59
10099;BME280;5089;42.656;23.374;2022-09-17T00:13:08;93984.63;;;19.77;90.69
10099;BME280;5089;42.656;23.374;2022-09-17T00:15:39;93978.31;;;19.73;90.60
10099;BME280;5089;42.656;23.374;2022-09-17T00:18:06;93947.94;;;19.74;90.49
10099;BME280;5089;42.656;23.374;2022-09-17T00:20:37;93971.00;;;19.77;90.55
10099;BME280;5089;42.656;23.374;2022-09-17T00:23:03;93960.09;;;19.77;90.38
10099;BME280;5089;42.656;23.374;2022-09-17T00:25:30;93947.44;;;19.84;90.08
10099;BME280;5089;42.656;23.374;2022-09-17T00:27:57;93898.72;;;19.51;90.02
10099;BME280;5089;42.656;23.374;2022-09-17T00:30:26;93952.88;;;19.84;90.34
10099;BME280;5089;42.656;23.374;2022-09-17T00:32:52;93870.94;;;19.46;89.45
10099;BME280;5089;42.656;23.374;2022-09-17T00:35:22;93905.81;;;19.56;89.61
10099;BME280;5089;42.656;23.374;2022-09-17T00:37:50;93941.69;;;19.73;89.42
10099;BME280;5089;42.656;23.374;2022-09-17T00:40:17;93956.13;;;19.90;89.42
10099;BME280;5089;42.656;23.374;2022-09-17T00:42:44;93954.28;;;19.78;88.69
10099;BME280;5089;42.656;23.374;2022-09-17T00:45:11;93949.53;;;19.75;89.57
10099;BME280;5089;42.656;23.374;2022-09-17T00:47:41;93953.69;;;19.85;89.79
10099;BME280;5089;42.656;23.374;2022-09-17T00:50:14;93912.84;;;19.41;89.24
10099;BME280;5089;42.656;23.374;2022-09-17T00:52:43;93972.50;;;19.90;88.91
10099;BME280;5089;42.656;23.374;2022-09-17T00:55:15;93973.31;;;19.90;88.62
10099;BME280;5089;42.656;23.374;2022-09-17T00:57:43;93972.50;;;19.90;88.14
10099;BME280;5089;42.656;23.374;2022-09-17T01:00:13;93986.13;;;19.90;88.71
10099;BME280;5089;42.656;23.374;2022-09-17T01:02:42;93994.13;;;19.83;89.00
10099;BME280;5089;42.656;23.374;2022-09-17T01:05:10;93992.09;;;19.80;89.58
10099;BME280;5089;42.656;23.374;2022-09-17T01:07:51;93890.38;;;18.89;90.45
10099;BME280;5089;42.656;23.374;2022-09-17T01:10:33;93937.06;;;19.31;91.95
10099;BME280;5089;42.656;23.374;2022-09-17T01:13:11;93925.09;;;19.35;91.32
10099;BME280;5089;42.656;23.374;2022-09-17T01:15:48;93955.69;;;19.56;91.37
10099;BME280;5089;42.656;23.374;2022-09-17T01:18:39;93962.53;;;19.66;91.51
10099;BME280;5089;42.656;23.374;2022-09-17T01:21:29;93932.84;;;19.61;91.60
10099;BME280;5089;42.656;23.374;2022-09-17T01:27:33;93964.28;;;19.58;91.82
10099;BME280;5089;42.656;23.374;2022-09-17T01:30:15;93959.09;;;19.53;92.20
10099;BME280;5089;42.656;23.374;2022-09-17T01:32:48;93938.03;;;19.38;92.23
10099;BME280;5089;42.656;23.374;2022-09-17T01:35:20;93963.75;;;19.53;92.45
10099;BME280;5089;42.656;23.374;2022-09-17T01:38:00;93973.09;;;19.52;93.00
10099;BME280;5089;42.656;23.374;2022-09-17T01:40:34;93973.84;;;19.52;92.83
10099;BME280;5089;42.656;23.374;2022-09-17T01:43:07;93998.84;;;19.54;92.56
10099;BME280;5089;42.656;23.374;2022-09-17T01:45:38;93956.53;;;19.45;92.66
10099;BME280;5089;42.656;23.374;2022-09-17T01:48:12;93911.53;;;19.23;92.81
10099;BME280;5089;42.656;23.374;2022-09-17T01:50:45;93922.63;;;19.58;92.82
10099;BME280;5089;42.656;23.374;2022-09-17T01:53:15;93933.53;;;19.58;93.10
10099;BME280;5089;42.656;23.374;2022-09-17T01:55:44;93903.00;;;19.52;93.62
10099;BME280;5089;42.656;23.374;2022-09-17T01:58:21;93898.81;;;19.55;92.81
10099;BME280;5089;42.656;23.374;2022-09-17T02:00:52;93906.88;;;19.51;92.30
10099;BME280;5089;42.656;23.374;2022-09-17T02:03:24;93938.81;;;19.66;92.07
10099;BME280;5089;42.656;23.374;2022-09-17T02:05:57;93942.25;;;19.63;92.23
10099;BME280;5089;42.656;23.374;2022-09-17T02:08:30;93906.97;;;19.39;91.96
10099;BME280;5089;42.656;23.374;2022-09-17T02:11:05;93919.63;;;19.63;92.14
10099;BME280;5089;42.656;23.374;2022-09-17T02:13:39;93907.13;;;19.62;91.89
10099;BME280;5089;42.656;23.374;2022-09-17T02:16:12;93900.03;;;19.57;91.71
10099;BME280;5089;42.656;23.374;2022-09-17T02:18:48;93885.25;;;19.58;91.92
10099;BME280;5089;42.656;23.374;2022-09-17T02:21:22;93836.09;;;19.55;92.01
10099;BME280;5089;42.656;23.374;2022-09-17T02:23:56;93827.44;;;19.37;91.52
10099;BME280;5089;42.656;23.374;2022-09-17T02:26:28;93804.88;;;19.21;91.79
10099;BME280;5089;42.656;23.374;2022-09-17T02:28:58;93778.16;;;19.27;91.19
10099;BME280;5089;42.656;23.374;2022-09-17T02:31:28;93778.31;;;19.49;89.98
10099;BME280;5089;42.656;23.374;2022-09-17T02:34:00;93805.78;;;19.41;90.31
10099;BME280;5089;42.656;23.374;2022-09-17T02:36:27;93763.03;;;19.29;90.62
10099;BME280;5089;42.656;23.374;2022-09-17T02:38:58;93808.13;;;19.27;90.90
10099;BME280;5089;42.656;23.374;2022-09-17T02:41:35;93833.44;;;19.27;91.77
10099;BME280;5089;42.656;23.374;2022-09-17T02:44:12;93835.56;;;19.34;92.87
10099;BME280;5089;42.656;23.374;2022-09-17T02:46:59;93819.19;;;19.18;91.72
10099;BME280;5089;42.656;23.374;2022-09-17T02:49:42;93829.72;;;19.19;92.32
10099;BME280;5089;42.656;23.374;2022-09-17T02:52:19;93846.88;;;19.20;93.25
10099;BME280;5089;42.656;23.374;2022-09-17T02:55:00;93857.66;;;19.16;92.40
10099;BME280;5089;42.656;23.374;2022-09-17T02:57:38;93851.53;;;19.19;92.71
10099;BME280;5089;42.656;23.374;2022-09-17T03:00:10;93851.63;;;19.23;92.99
10099;BME280;5089;42.656;23.374;2022-09-17T03:02:41;93841.72;;;19.31;92.61
10099;BME280;5089;42.656;23.374;2022-09-17T03:05:11;93821.94;;;19.34;92.34
10099;BME280;5089;42.656;23.374;2022-09-17T03:07:39;93826.22;;;19.35;91.40
10099;BME280;5089;42.656;23.374;2022-09-17T03:10:06;93812.50;;;19.31;91.96
10099;BME280;5089;42.656;23.374;2022-09-17T03:12:34;93795.13;;;19.36;92.00
10099;BME280;5089;42.656;23.374;2022-09-17T03:15:03;93813.59;;;19.42;91.35
10099;BME280;5089;42.656;23.374;2022-09-17T03:17:31;93813.75;;;19.49;90.77
10099;BME280;5089;42.656;23.374;2022-09-17T03:19:57;93810.78;;;19.54;90.21
10099;BME280;5089;42.656;23.374;2022-09-17T03:22:25;93817.56;;;19.60;90.28
10099;BME280;5089;42.656;23.374;2022-09-17T03:24:52;93777.25;;;19.38;89.63
10099;BME280;5089;42.656;23.374;2022-09-17T03:27:19;93810.59;;;19.63;89.35
10099;BME280;5089;42.656;23.374;2022-09-17T03:29:46;93813.84;;;19.68;88.92
10099;BME280;5089;42.656;23.374;2022-09-17T03:32:12;93715.31;;;19.04;88.30
10099;BME280;5089;42.656;23.374;2022-09-17T03:34:39;93812.91;;;19.61;88.20
10099;BME280;5089;42.656;23.374;2022-09-17T03:37:06;93785.91;;;19.40;88.77
10099;BME280;5089;42.656;23.374;2022-09-17T03:39:34;93789.09;;;19.42;89.37
10099;BME280;5089;42.656;23.374;2022-09-17T03:42:01;93814.75;;;19.41;89.61
10099;BME280;5089;42.656;23.374;2022-09-17T03:44:28;93786.34;;;19.42;89.91
10099;BME280;5089;42.656;23.374;2022-09-17T03:46:54;93791.81;;;19.42;90.03
10099;BME280;5089;42.656;23.374;2022-09-17T03:49:21;93732.38;;;19.16;90.58
10099;BME280;5089;42.656;23.374;2022-09-17T03:51:49;93779.75;;;19.43;90.31
10099;BME280;5089;42.656;23.374;2022-09-17T03:54:16;93776.06;;;19.51;90.04
10099;BME280;5089;42.656;23.374;2022-09-17T03:56:44;93768.31;;;19.53;89.60
10099;BME280;5089;42.656;23.374;2022-09-17T03:59:11;93783.97;;;19.56;89.83
10099;BME280;5089;42.656;23.374;2022-09-17T04:01:39;93763.03;;;19.29;90.35
10099;BME280;5089;42.656;23.374;2022-09-17T04:04:06;93793.28;;;19.55;90.46
10099;BME280;5089;42.656;23.374;2022-09-17T04:06:33;93797.31;;;19.61;90.13
10099;BME280;5089;42.656;23.374;2022-09-17T04:09:00;93770.22;;;19.37;89.71
10099;BME280;5089;42.656;23.374;2022-09-17T04:11:29;93725.88;;;19.05;89.82
10099;BME280;5089;42.656;23.374;2022-09-17T04:13:57;93753.03;;;19.33;89.28
10099;BME280;5089;42.656;23.374;2022-09-17T04:16:24;93824.75;;;19.68;89.12
10099;BME280;5089;42.656;23.374;2022-09-17T04:18:51;93807.50;;;19.64;88.91
10099;BME280;5089;42.656;23.374;2022-09-17T04:21:18;93790.63;;;19.43;89.10
10099;BME280;5089;42.656;23.374;2022-09-17T04:23:45;93856.22;;;19.66;89.23
10099;BME280;5089;42.656;23.374;2022-09-17T04:26:11;93893.25;;;19.67;89.93
10099;BME280;5089;42.656;23.374;2022-09-17T04:28:38;93799.59;;;18.97;90.57
10099;BME280;5089;42.656;23.374;2022-09-17T04:31:07;93892.63;;;19.73;90.16
10099;BME280;5089;42.656;23.374;2022-09-17T04:33:34;93912.50;;;19.74;91.45
10099;BME280;5089;42.656;23.374;2022-09-17T04:36:02;93891.84;;;19.73;91.52
10099;BME280;5089;42.656;23.374;2022-09-17T04:38:29;93866.84;;;19.55;91.07
10099;BME280;5089;42.656;23.374;2022-09-17T04:40:55;93918.06;;;19.78;92.20
10099;BME280;5089;42.656;23.374;2022-09-17T04:43:22;93927.81;;;19.79;91.81
10099;BME280;5089;42.656;23.374;2022-09-17T04:45:50;93827.34;;;19.02;91.42
10099;BME280;5089;42.656;23.374;2022-09-17T04:48:18;93930.09;;;19.77;91.37
10099;BME280;5089;42.656;23.374;2022-09-17T04:50:48;93942.31;;;19.83;91.58
10099;BME280;5089;42.656;23.374;2022-09-17T04:53:15;93961.50;;;19.86;91.09
10099;BME280;5089;42.656;23.374;2022-09-17T04:55:43;93933.09;;;19.71;91.24
10099;BME280;5089;42.656;23.374;2022-09-17T04:58:10;93904.41;;;19.46;91.90
10099;BME280;5089;42.656;23.374;2022-09-17T05:00:37;93980.25;;;19.88;91.40
10099;BME280;5089;42.656;23.374;2022-09-17T05:03:04;93976.81;;;19.91;91.33
10099;BME280;5089;42.656;23.374;2022-09-17T05:05:33;93959.28;;;19.92;91.74
10099;BME280;5089;42.656;23.374;2022-09-17T05:08:00;93957.72;;;19.91;91.86
10099;BME280;5089;42.656;23.374;2022-09-17T05:10:27;93959.28;;;19.92;92.30
10099;BME280;5089;42.656;23.374;2022-09-17T05:12:55;93958.53;;;19.91;92.90
10099;BME280;5089;42.656;23.374;2022-09-17T05:15:23;93957.81;;;19.94;93.18
10099;BME280;5089;42.656;23.374;2022-09-17T05:17:50;93921.22;;;19.80;93.32
10099;BME280;5089;42.656;23.374;2022-09-17T05:20:17;93956.31;;;19.97;93.37
10099;BME280;5089;42.656;23.374;2022-09-17T05:22:47;93939.97;;;19.97;94.01
10099;BME280;5089;42.656;23.374;2022-09-17T05:25:16;93917.53;;;20.03;93.92
10099;BME280;5089;42.656;23.374;2022-09-17T05:27:43;93848.28;;;19.77;92.58
10099;BME280;5089;42.656;23.374;2022-09-17T05:30:11;93868.94;;;20.09;90.92
10099;BME280;5089;42.656;23.374;2022-09-17T05:32:38;93919.25;;;20.43;90.25
10099;BME280;5089;42.656;23.374;2022-09-17T05:35:07;93906.31;;;20.24;90.19
10099;BME280;5089;42.656;23.374;2022-09-17T05:37:36;93925.88;;;20.26;91.30
10099;BME280;5089;42.656;23.374;2022-09-17T05:40:06;93895.25;;;19.86;91.12
10099;BME280;5089;42.656;23.374;2022-09-17T05:42:33;93944.34;;;20.17;91.75
10099;BME280;5089;42.656;23.374;2022-09-17T05:45:00;93936.44;;;20.12;91.58
10099;BME280;5089;42.656;23.374;2022-09-17T05:47:27;93944.53;;;20.08;92.02
10099;BME280;5089;42.656;23.374;2022-09-17T05:49:56;93916.47;;;19.92;91.81
10099;BME280;5089;42.656;23.374;2022-09-17T05:52:25;93940.75;;;19.97;91.79
10099;BME280;5089;42.656;23.374;2022-09-17T05:54:52;93956.66;;;20.11;93.01
10099;BME280;5089;42.656;23.374;2022-09-17T05:57:20;93942.59;;;20.09;92.63
10099;BME280;5089;42.656;23.374;2022-09-17T05:59:47;93926.47;;;20.04;91.44
10099;BME280;5089;42.656;23.374;2022-09-17T06:02:14;93939.41;;;20.07;91.14
10099;BME280;5089;42.656;23.374;2022-09-17T06:04:41;93930.97;;;20.12;91.12
10099;BME280;5089;42.656;23.374;2022-09-17T06:07:08;93934.84;;;20.11;90.64
10099;BME280;5089;42.656;23.374;2022-09-17T06:09:35;93934.84;;;20.11;90.95
10099;BME280;5089;42.656;23.374;2022-09-17T06:12:03;93944.84;;;20.07;91.33
10099;BME280;5089;42.656;23.374;2022-09-17T06:14:31;93942.59;;;20.09;90.88
10099;BME280;5089;42.656;23.374;2022-09-17T06:16:58;93924.38;;;19.97;91.25
10099;BME280;5089;42.656;23.374;2022-09-17T06:19:26;93953.31;;;20.02;90.49
10099;BME280;5089;42.656;23.374;2022-09-17T06:21:53;93941.78;;;19.93;90.71
10099;BME280;5089;42.656;23.374;2022-09-17T06:24:20;93967.75;;;19.87;90.67
10099;BME280;5089;42.656;23.374;2022-09-17T06:26:47;93883.59;;;19.26;90.96
10099;BME280;5089;42.656;23.374;2022-09-17T06:29:14;93945.84;;;19.52;92.76
10099;BME280;5089;42.656;23.374;2022-09-17T06:31:43;94035.69;;;20.07;92.67
10099;BME280;5089;42.656;23.374;2022-09-17T06:34:10;94022.94;;;20.11;92.49
10099;BME280;5089;42.656;23.374;2022-09-17T06:36:38;94021.00;;;20.12;92.66
10099;BME280;5089;42.656;23.374;2022-09-17T06:39:05;94011.66;;;19.97;92.69
10099;BME280;5089;42.656;23.374;2022-09-17T06:41:33;94034.72;;;20.15;93.97
10099;BME280;5089;42.656;23.374;2022-09-17T06:44:01;93996.84;;;19.83;93.95
10099;BME280;5089;42.656;23.374;2022-09-17T06:46:30;93996.06;;;19.98;94.28
10099;BME280;5089;42.656;23.374;2022-09-17T06:49:02;94005.50;;;20.16;94.69
10099;BME280;5089;42.656;23.374;2022-09-17T06:51:29;93974.09;;;20.06;95.20
10099;BME280;5089;42.656;23.374;2022-09-17T06:53:56;93985.06;;;20.10;93.89
10099;BME280;5089;42.656;23.374;2022-09-17T06:56:22;93920.25;;;19.72;93.74
10099;BME280;5089;42.656;23.374;2022-09-17T06:58:49;93962.22;;;19.99;93.65
10099;BME280;5089;42.656;23.374;2022-09-17T07:01:17;93930.38;;;19.87;93.75
10099;BME280;5089;42.656;23.374;2022-09-17T07:03:44;93993.03;;;20.31;93.85
10099;BME280;5089;42.656;23.374;2022-09-17T07:06:15;93967.28;;;20.16;93.22
10099;BME280;5089;42.656;23.374;2022-09-17T07:08:42;93955.34;;;20.20;93.67
10099;BME280;5089;42.656;23.374;2022-09-17T07:11:09;93945.41;;;20.28;93.38
10099;BME280;5089;42.656;23.374;2022-09-17T07:13:37;93899.28;;;19.92;92.95
10099;BME280;5089;42.656;23.374;2022-09-17T07:16:06;93919.00;;;20.32;93.15
10099;BME280;5089;42.656;23.374;2022-09-17T07:18:33;93860.75;;;20.09;93.24
10099;BME280;5089;42.656;23.374;2022-09-17T07:21:01;93911.75;;;20.94;100.00
10099;BME280;5089;42.656;23.374;2022-09-17T07:23:32;93876.34;;;21.01;98.43
10099;BME280;5089;42.656;23.374;2022-09-17T07:26:01;93894.63;;;21.35;91.12
10099;BME280;5089;42.656;23.374;2022-09-17T07:28:28;93906.75;;;21.57;89.09
10099;BME280;5089;42.656;23.374;2022-09-17T07:30:56;93904.50;;;21.62;86.76
10099;BME280;5089;42.656;23.374;2022-09-17T07:33:25;93893.56;;;21.62;87.56
10099;BME280;5089;42.656;23.374;2022-09-17T07:35:53;93907.75;;;21.91;86.40
10099;BME280;5089;42.656;23.374;2022-09-17T07:38:22;93826.09;;;21.47;85.59
10099;BME280;5089;42.656;23.374;2022-09-17T07:40:56;93903.53;;;21.97;84.94
10099;BME280;5089;42.656;23.374;2022-09-17T07:43:24;93882.53;;;22.04;85.45
10099;BME280;5089;42.656;23.374;2022-09-17T07:45:51;93880.97;;;22.03;84.05
10099;BME280;5089;42.656;23.374;2022-09-17T07:48:18;93903.03;;;22.14;83.47
10099;BME280;5089;42.656;23.374;2022-09-17T07:50:45;93893.44;;;22.01;83.90
10099;BME280;5089;42.656;23.374;2022-09-17T07:53:13;93867.41;;;21.87;83.94
10099;BME280;5089;42.656;23.374;2022-09-17T07:55:40;93921.22;;;22.03;82.69
10099;BME280;5089;42.656;23.374;2022-09-17T07:58:08;93901.09;;;21.92;83.57
10099;BME280;5089;42.656;23.374;2022-09-17T08:00:35;93863.34;;;21.78;83.08
10099;BME280;5089;42.656;23.374;2022-09-17T08:03:02;93886.13;;;21.85;82.28
10099;BME280;5089;42.656;23.374;2022-09-17T08:05:31;93843.78;;;21.53;83.23
10099;BME280;5089;42.656;23.374;2022-09-17T08:07:58;93904.31;;;21.97;84.75
10099;BME280;5089;42.656;23.374;2022-09-17T08:10:24;93892.63;;;22.00;84.70
10099;BME280;5089;42.656;23.374;2022-09-17T08:12:54;93882.88;;;21.99;82.51
10099;BME280;5089;42.656;23.374;2022-09-17T08:15:23;93830.53;;;21.78;83.51
10099;BME280;5089;42.656;23.374;2022-09-17T08:17:51;93846.66;;;21.86;81.67
10099;BME280;5089;42.656;23.374;2022-09-17T08:20:18;93873.13;;;22.02;80.68
10099;BME280;5089;42.656;23.374;2022-09-17T08:22:45;93877.88;;;22.05;81.46
10099;BME280;5089;42.656;23.374;2022-09-17T08:25:11;93872.50;;;22.12;81.31
10099;BME280;5089;42.656;23.374;2022-09-17T08:27:38;93853.25;;;22.05;82.85
10099;BME280;5089;42.656;23.374;2022-09-17T08:30:06;93839.16;;;22.03;80.48
10099;BME280;5089;42.656;23.374;2022-09-17T08:32:34;93777.75;;;21.77;81.73
10099;BME280;5089;42.656;23.374;2022-09-17T08:35:02;93844.63;;;22.03;81.53
10099;BME280;5089;42.656;23.374;2022-09-17T08:37:28;93843.53;;;22.37;92.79
10099;BME280;5089;42.656;23.374;2022-09-17T08:39:57;93857.03;;;22.79;90.99
10099;BME280;5089;42.656;23.374;2022-09-17T08:42:29;93877.63;;;22.99;76.96
10099;BME280;5089;42.656;23.374;2022-09-17T08:44:58;93875.94;;;22.87;74.75
10099;BME280;5089;42.656;23.374;2022-09-17T08:47:33;93860.25;;;22.58;77.45
10099;BME280;5089;42.656;23.374;2022-09-17T08:50:05;93844.41;;;22.71;80.96
10099;BME280;5089;42.656;23.374;2022-09-17T08:52:47;93853.34;;;22.98;77.48
10099;BME280;5089;42.656;23.374;2022-09-17T08:55:29;93811.19;;;22.46;72.56
10099;BME280;5089;42.656;23.374;2022-09-17T08:58:15;93872.22;;;22.73;77.09
10099;BME280;5089;42.656;23.374;2022-09-17T09:00:50;93840.47;;;22.68;78.11
10099;BME280;5089;42.656;23.374;2022-09-17T09:03:30;93831.66;;;22.85;77.28
10099;BME280;5089;42.656;23.374;2022-09-17T09:06:05;93870.84;;;23.23;75.62
10099;BME280;5089;42.656;23.374;2022-09-17T09:08:35;93860.38;;;23.32;75.97
10099;BME280;5089;42.656;23.374;2022-09-17T09:11:05;93876.56;;;23.40;69.55
10099;BME280;5089;42.656;23.374;2022-09-17T09:13:39;93879.56;;;23.32;72.40
10099;BME280;5089;42.656;23.374;2022-09-17T09:16:13;93890.41;;;23.18;72.64
10099;BME280;5089;42.656;23.374;2022-09-17T09:18:42;93887.56;;;23.11;73.40
10099;BME280;5089;42.656;23.374;2022-09-17T09:21:19;93827.06;;;22.63;75.25
10099;BME280;5089;42.656;23.374;2022-09-17T09:23:53;93906.78;;;23.14;76.03
10099;BME280;5089;42.656;23.374;2022-09-17T09:26:30;93879.38;;;23.14;75.05
10099;BME280;5089;42.656;23.374;2022-09-17T09:29:04;93906.00;;;23.14;72.94
10099;BME280;5089;42.656;23.374;2022-09-17T09:31:55;93907.59;;;23.18;75.32
10099;BME280;5089;42.656;23.374;2022-09-17T09:34:26;93855.13;;;22.83;77.12
10099;BME280;5089;42.656;23.374;2022-09-17T09:37:01;93874.06;;;22.65;75.92
10099;BME280;5089;42.656;23.374;2022-09-17T09:39:32;93897.25;;;22.45;75.94
10099;BME280;5089;42.656;23.374;2022-09-17T09:42:08;93905.28;;;22.34;80.12
10099;BME280;5089;42.656;23.374;2022-09-17T09:44:36;93912.19;;;22.25;79.57
10099;BME280;5089;42.656;23.374;2022-09-17T09:47:28;93940.53;;;22.36;84.75
10099;BME280;5089;42.656;23.374;2022-09-17T09:50:07;93947.47;;;22.30;86.60
10099;BME280;5089;42.656;23.374;2022-09-17T09:52:50;93952.41;;;22.21;89.19
10099;BME280;5089;42.656;23.374;2022-09-17T09:55:41;93949.34;;;22.00;89.62
10099;BME280;5089;42.656;23.374;2022-09-17T09:58:19;93949.47;;;21.87;90.77
10099;BME280;5089;42.656;23.374;2022-09-17T10:00:49;93966.69;;;21.88;92.91
10099;BME280;5089;42.656;23.374;2022-09-17T10:03:19;93975.25;;;21.86;96.42
10099;BME280;5089;42.656;23.374;2022-09-17T10:05:57;93924.69;;;21.58;97.94
10099;BME280;5089;42.656;23.374;2022-09-17T10:08:27;93935.25;;;21.78;98.21
10099;BME280;5089;42.656;23.374;2022-09-17T10:10:57;93903.88;;;21.72;96.60
10099;BME280;5089;42.656;23.374;2022-09-17T10:13:24;93852.78;;;21.54;94.59
10099;BME280;5089;42.656;23.374;2022-09-17T10:15:51;93884.94;;;21.60;94.40
10099;BME280;5089;42.656;23.374;2022-09-17T10:18:20;93858.53;;;21.26;94.17
10099;BME280;5089;42.656;23.374;2022-09-17T10:21:20;93875.25;;;21.44;94.85
10099;BME280;5089;42.656;23.374;2022-09-17T10:27:09;93832.66;;;21.01;95.02
10099;BME280;5089;42.656;23.374;2022-09-17T10:29:41;93836.97;;;21.02;95.60
10099;BME280;5089;42.656;23.374;2022-09-17T10:32:14;93709.00;;;20.20;93.92
10099;BME280;5089;42.656;23.374;2022-09-17T10:34:42;93835.38;;;21.01;96.41
10099;BME280;5089;42.656;23.374;2022-09-17T10:37:33;93812.84;;;20.65;96.74
10099;BME280;5089;42.656;23.374;2022-09-17T10:40:01;93858.81;;;20.83;97.62
10099;BME280;5089;42.656;23.374;2022-09-17T10:42:30;93832.84;;;20.69;98.03
10099;BME280;5089;42.656;23.374;2022-09-17T10:44:58;93788.59;;;20.60;98.91
10099;BME280;5089;42.656;23.374;2022-09-17T10:47:41;93800.91;;;20.73;99.49
10099;BME280;5089;42.656;23.374;2022-09-17T10:50:16;93791.94;;;20.73;100.00
10099;BME280;5089;42.656;23.374;2022-09-17T10:52:47;93788.84;;;20.74;100.00
10099;BME280;5089;42.656;23.374;2022-09-17T10:55:19;93777.63;;;20.79;99.94
10099;BME280;5089;42.656;23.374;2022-09-17T10:58:10;93741.16;;;20.68;98.48
10099;BME280;5089;42.656;23.374;2022-09-17T11:00:58;93707.19;;;20.47;97.03
10099;BME280;5089;42.656;23.374;2022-09-17T11:07:32;93684.44;;;20.39;93.97
10099;BME280;5089;42.656;23.374;2022-09-17T11:10:20;93787.53;;;20.88;95.44
10099;BME280;5089;42.656;23.374;2022-09-17T11:13:07;93799.38;;;20.95;97.47
10099;BME280;5089;42.656;23.374;2022-09-17T11:15:47;93804.19;;;21.02;99.72
10099;BME280;5089;42.656;23.374;2022-09-17T11:18:31;93791.91;;;21.11;100.00
10099;BME280;5089;42.656;23.374;2022-09-17T11:21:12;93777.44;;;21.11;100.00
10099;BME280;5089;42.656;23.374;2022-09-17T11:23:57;93778.72;;;21.17;96.81
10099;BME280;5089;42.656;23.374;2022-09-17T11:26:31;93721.31;;;20.94;95.10
10099;BME280;5089;42.656;23.374;2022-09-17T11:29:15;93801.63;;;21.54;96.37
10099;BME280;5089;42.656;23.374;2022-09-17T11:31:51;93756.94;;;21.20;96.68
10099;BME280;5089;42.656;23.374;2022-09-17T11:34:28;93833.31;;;21.59;97.53
10099;BME280;5089;42.656;23.374;2022-09-17T11:37:01;93829.25;;;21.49;99.25
10099;BME280;5089;42.656;23.374;2022-09-17T11:39:35;93830.16;;;21.34;99.23
10099;BME280;5089;42.656;23.374;2022-09-17T11:42:09;93829.03;;;21.35;99.72
10099;BME280;5089;42.656;23.374;2022-09-17T11:44:44;93722.69;;;20.62;99.55
10099;BME280;5089;42.656;23.374;2022-09-17T11:47:15;93801.31;;;21.14;99.47
10099;BME280;5089;42.656;23.374;2022-09-17T11:49:47;93737.28;;;20.92;99.73
10099;BME280;5089;42.656;23.374;2022-09-17T11:52:20;93831.88;;;21.42;97.80
10099;BME280;5089;42.656;23.374;2022-09-17T11:54:54;93796.63;;;21.37;97.56
10099;BME280;5089;42.656;23.374;2022-09-17T11:57:24;93792.34;;;21.36;97.85
10099;BME280;5089;42.656;23.374;2022-09-17T11:59:58;93795.28;;;21.27;98.81
10099;BME280;5089;42.656;23.374;2022-09-17T12:02:37;93697.63;;;20.79;97.41
10099;BME280;5089;42.656;23.374;2022-09-17T12:05:10;93785.41;;;21.42;98.08
10099;BME280;5089;42.656;23.374;2022-09-17T12:07:47;93798.22;;;21.38;95.60
10099;BME280;5089;42.656;23.374;2022-09-17T12:10:27;93755.00;;;21.02;92.31
10099;BME280;5089;42.656;23.374;2022-09-17T12:12:57;93747.41;;;20.92;93.53
10099;BME280;5089;42.656;23.374;2022-09-17T12:15:29;93800.22;;;21.18;94.24
10099;BME280;5089;42.656;23.374;2022-09-17T12:18:19;93804.91;;;21.18;95.10
10099;BME280;5089;42.656;23.374;2022-09-17T12:20:50;93796.81;;;21.25;95.02
10099;BME280;5089;42.656;23.374;2022-09-17T12:23:32;93731.09;;;20.72;97.18
10099;BME280;5089;42.656;23.374;2022-09-17T12:26:13;93803.16;;;21.29;94.97
10099;BME280;5089;42.656;23.374;2022-09-17T12:28:50;93785.06;;;21.21;95.72
10099;BME280;5089;42.656;23.374;2022-09-17T12:31:25;93781.28;;;21.29;95.86
10099;BME280;5089;42.656;23.374;2022-09-17T12:34:01;93781.28;;;21.29;93.71
10099;BME280;5089;42.656;23.374;2022-09-17T12:36:41;93796.72;;;21.18;95.30
10099;BME280;5089;42.656;23.374;2022-09-17T12:42:25;93776.31;;;21.12;94.62
10099;BME280;5089;42.656;23.374;2022-09-17T12:45:20;93788.66;;;21.06;93.94
10099;BME280;5089;42.656;23.374;2022-09-17T12:48:00;93753.81;;;20.99;94.92
10099;BME280;5089;42.656;23.374;2022-09-17T12:50:41;93760.34;;;20.95;94.42
10099;BME280;5089;42.656;23.374;2022-09-17T12:53:19;93752.88;;;20.92;97.38
10099;BME280;5089;42.656;23.374;2022-09-17T12:56:01;93767.81;;;20.98;98.97
10099;BME280;5089;42.656;23.374;2022-09-17T12:58:52;93765.53;;;21.00;99.13
10099;BME280;5089;42.656;23.374;2022-09-17T13:01:27;93706.19;;;20.77;98.98
10099;BME280;5089;42.656;23.374;2022-09-17T13:04:06;93720.72;;;20.82;98.90
10099;BME280;5089;42.656;23.374;2022-09-17T13:07:03;93736.31;;;21.04;98.84
10099;BME280;5089;42.656;23.374;2022-09-17T13:09:50;93750.28;;;20.99;98.71
10099;BME280;5089;42.656;23.374;2022-09-17T13:12:27;93743.34;;;21.05;99.19
10099;BME280;5089;42.656;23.374;2022-09-17T13:15:34;93723.69;;;20.96;99.75
10099;BME280;5089;42.656;23.374;2022-09-17T13:18:10;93724.72;;;20.88;98.94
10099;BME280;5089;42.656;23.374;2022-09-17T13:20:49;93669.84;;;20.51;96.57
10099;BME280;5089;42.656;23.374;2022-09-17T13:23:29;93680.22;;;20.42;93.70
10099;BME280;5089;42.656;23.374;2022-09-17T13:25:58;93709.41;;;20.60;93.19
10099;BME280;5089;42.656;23.374;2022-09-17T13:28:36;93723.00;;;20.79;92.45
10099;BME280;5089;42.656;23.374;2022-09-17T13:31:03;93705.81;;;20.79;91.32
10099;BME280;5089;42.656;23.374;2022-09-17T13:33:50;93715.13;;;20.97;92.73
10099;BME280;5089;42.656;23.374;2022-09-17T13:36:40;93703.84;;;20.99;92.76
10099;BME280;5089;42.656;23.374;2022-09-17T13:39:10;93681.31;;;20.83;93.15